sensor_id;sensor_type;location;lat;lon;timestamp;pressure;altitude;pressure_sealevel;temperature;humidity
75455;BME280;64035;48.358;2.122;2022-11-14T00:00:47;100550.81;;;9.12;79.73
75455;BME280;64035;48.358;2.122;2022-11-14T00:01:47;100550.63;;;9.09;79.76
75455;BME280;64035;48.358;2.122;2022-11-14T00:02:48;100548.81;;;9.06;79.94
75455;BME280;64035;48.358;2.122;2022-11-14T00:03:55;100556.56;;;9.08;79.94
75455;BME280;64035;48.358;2.122;2022-11-14T00:04:55;100554.59;;;9.04;79.91
75455;BME280;64035;48.358;2.122;2022-11-14T00:06:12;100564.91;;;9.05;79.69
75455;BME280;64035;48.358;2.122;2022-11-14T00:07:12;100556.97;;;9.00;79.75
75455;BME280;64035;48.358;2.122;2022-11-14T00:08:19;100562.06;;;9.00;79.96
75455;BME280;64035;48.358;2.122;2022-11-14T00:09:24;100561.59;;;8.91;79.90
75455;BME280;64035;48.358;2.122;2022-11-14T00:10:24;100574.50;;;8.94;80.34
75455;BME280;64035;48.358;2.122;2022-11-14T00:11:25;100565.03;;;8.92;80.13
75455;BME280;64035;48.358;2.122;2022-11-14T00:12:25;100570.38;;;8.96;80.36
75455;BME280;64035;48.358;2.122;2022-11-14T00:13:28;100579.78;;;8.97;80.12
75455;BME280;64035;48.358;2.122;2022-11-14T00:14:29;100576.13;;;8.92;80.10
75455;BME280;64035;48.358;2.122;2022-11-14T00:15:32;100583.13;;;8.96;80.28
75455;BME280;64035;48.358;2.122;2022-11-14T00:16:32;100583.94;;;8.95;79.77
75455;BME280;64035;48.358;2.122;2022-11-14T00:17:42;100576.72;;;8.88;79.67
75455;BME280;64035;48.358;2.122;2022-11-14T00:18:42;100581.81;;;8.88;80.18
75455;BME280;64035;48.358;2.122;2022-11-14T00:19:51;100586.03;;;8.88;80.32
75455;BME280;64035;48.358;2.122;2022-11-14T00:20:52;100592.22;;;8.91;80.41
75455;BME280;64035;48.358;2.122;2022-11-14T00:21:53;100593.16;;;8.93;80.39
75455;BME280;64035;48.358;2.122;2022-11-14T00:22:53;100592.03;;;8.88;79.92
75455;BME280;64035;48.358;2.122;2022-11-14T00:23:54;100596.88;;;8.84;79.82
75455;BME280;64035;48.358;2.122;2022-11-14T00:24:54;100589.75;;;8.78;80.04
75455;BME280;64035;48.358;2.122;2022-11-14T00:25:55;100591.69;;;8.82;80.37
75455;BME280;64035;48.358;2.122;2022-11-14T00:26:55;100585.59;;;8.80;79.95
75455;BME280;64035;48.358;2.122;2022-11-14T00:27:56;100585.25;;;8.74;80.05
75455;BME280;64035;48.358;2.122;2022-11-14T00:28:58;100591.50;;;8.79;80.33
75455;BME280;64035;48.358;2.122;2022-11-14T00:30:01;100583.78;;;8.78;80.50
75455;BME280;64035;48.358;2.122;2022-11-14T00:31:10;100585.34;;;8.76;80.43
75455;BME280;64035;48.358;2.122;2022-11-14T00:32:10;100593.09;;;8.77;80.30
75455;BME280;64035;48.358;2.122;2022-11-14T00:33:11;100588.69;;;8.75;80.64
75455;BME280;64035;48.358;2.122;2022-11-14T00:34:11;100596.59;;;8.79;80.74
75455;BME280;64035;48.358;2.122;2022-11-14T00:35:14;100580.34;;;8.77;80.23
75455;BME280;64035;48.358;2.122;2022-11-14T00:36:15;100584.72;;;8.80;80.36
75455;BME280;64035;48.358;2.122;2022-11-14T00:37:15;100583.84;;;8.79;80.61
75455;BME280;64035;48.358;2.122;2022-11-14T00:38:18;100573.47;;;8.76;80.38
75455;BME280;64035;48.358;2.122;2022-11-14T00:39:24;100577.94;;;8.80;80.49
75455;BME280;64035;48.358;2.122;2022-11-14T00:40:27;100568.63;;;8.81;80.19
75455;BME280;64035;48.358;2.122;2022-11-14T00:41:27;100577.44;;;8.86;79.92
75455;BME280;64035;48.358;2.122;2022-11-14T00:42:33;100579.13;;;8.85;80.29
75455;BME280;64035;48.358;2.122;2022-11-14T00:43:41;100574.59;;;8.81;80.07
75455;BME280;64035;48.358;2.122;2022-11-14T00:44:41;100572.84;;;8.80;80.10
75455;BME280;64035;48.358;2.122;2022-11-14T00:45:45;100579.63;;;8.80;79.80
75455;BME280;64035;48.358;2.122;2022-11-14T00:46:51;100577.78;;;8.77;80.13
75455;BME280;64035;48.358;2.122;2022-11-14T00:47:51;100581.22;;;8.78;79.88
75455;BME280;64035;48.358;2.122;2022-11-14T00:48:55;100584.03;;;8.82;79.97
75455;BME280;64035;48.358;2.122;2022-11-14T00:49:55;100576.19;;;8.79;79.90
75455;BME280;64035;48.358;2.122;2022-11-14T00:50:58;100569.41;;;8.80;80.24
75455;BME280;64035;48.358;2.122;2022-11-14T00:52:02;100572.84;;;8.80;79.95
75455;BME280;64035;48.358;2.122;2022-11-14T00:53:14;100572.78;;;8.79;79.85
75455;BME280;64035;48.358;2.122;2022-11-14T00:54:28;100575.94;;;8.75;80.14
75455;BME280;64035;48.358;2.122;2022-11-14T00:55:29;100575.25;;;8.77;80.34
75455;BME280;64035;48.358;2.122;2022-11-14T00:56:38;100583.84;;;8.79;80.58
75455;BME280;64035;48.358;2.122;2022-11-14T00:57:41;100577.59;;;8.74;80.10
75455;BME280;64035;48.358;2.122;2022-11-14T00:58:44;100578.69;;;8.78;80.29
75455;BME280;64035;48.358;2.122;2022-11-14T00:59:44;100571.53;;;8.72;80.09
75455;BME280;64035;48.358;2.122;2022-11-14T01:00:52;100577.59;;;8.74;80.47
75455;BME280;64035;48.358;2.122;2022-11-14T01:01:55;100571.53;;;8.72;80.11
75455;BME280;64035;48.358;2.122;2022-11-14T01:02:58;100578.47;;;8.75;80.59
75455;BME280;64035;48.358;2.122;2022-11-14T01:04:01;100576.72;;;8.74;80.30
75455;BME280;64035;48.358;2.122;2022-11-14T01:05:02;100579.13;;;8.71;80.34
75455;BME280;64035;48.358;2.122;2022-11-14T01:06:07;100587.91;;;8.76;79.99
75455;BME280;64035;48.358;2.122;2022-11-14T01:07:10;100580.00;;;8.71;80.13
75455;BME280;64035;48.358;2.122;2022-11-14T01:08:14;100570.38;;;8.67;79.83
75455;BME280;64035;48.358;2.122;2022-11-14T01:09:15;100575.41;;;8.66;80.46
75455;BME280;64035;48.358;2.122;2022-11-14T01:10:18;100577.34;;;8.70;79.94
75455;BME280;64035;48.358;2.122;2022-11-14T01:11:22;100580.78;;;8.70;79.56
75455;BME280;64035;48.358;2.122;2022-11-14T01:12:27;100579.13;;;8.71;79.50
75455;BME280;64035;48.358;2.122;2022-11-14T01:13:31;100574.59;;;8.67;79.92
75455;BME280;64035;48.358;2.122;2022-11-14T01:14:31;100590.00;;;8.68;80.38
75455;BME280;64035;48.358;2.122;2022-11-14T01:15:32;100587.38;;;8.67;79.74
75455;BME280;64035;48.358;2.122;2022-11-14T01:16:38;100584.81;;;8.67;79.94
75455;BME280;64035;48.358;2.122;2022-11-14T01:17:39;100591.59;;;8.66;79.69
75455;BME280;64035;48.358;2.122;2022-11-14T01:18:42;100605.31;;;8.68;79.75
75455;BME280;64035;48.358;2.122;2022-11-14T01:19:43;100595.66;;;8.63;79.78
75455;BME280;64035;48.358;2.122;2022-11-14T01:20:45;100595.75;;;8.64;79.94
75455;BME280;64035;48.358;2.122;2022-11-14T01:21:48;100598.97;;;8.61;79.82
75455;BME280;64035;48.358;2.122;2022-11-14T01:22:48;100591.06;;;8.57;79.85
75455;BME280;64035;48.358;2.122;2022-11-14T01:23:49;100600.47;;;8.58;80.46
75455;BME280;64035;48.358;2.122;2022-11-14T01:24:52;100593.63;;;8.57;79.80
75455;BME280;64035;48.358;2.122;2022-11-14T01:26:02;100590.97;;;8.55;79.64
75455;BME280;64035;48.358;2.122;2022-11-14T01:27:03;100601.44;;;8.60;79.72
75455;BME280;64035;48.358;2.122;2022-11-14T01:28:14;100604.63;;;8.56;79.97
75455;BME280;64035;48.358;2.122;2022-11-14T01:29:14;100600.56;;;8.59;79.43
75455;BME280;64035;48.358;2.122;2022-11-14T01:30:20;100596.88;;;8.54;79.80
75455;BME280;64035;48.358;2.122;2022-11-14T01:31:23;100609.88;;;8.59;79.55
75455;BME280;64035;48.358;2.122;2022-11-14T01:32:31;100606.09;;;8.52;80.17
75455;BME280;64035;48.358;2.122;2022-11-14T01:33:31;100602.84;;;8.55;79.74
75455;BME280;64035;48.358;2.122;2022-11-14T01:34:35;100600.84;;;8.49;80.24
75455;BME280;64035;48.358;2.122;2022-11-14T01:35:37;100608.56;;;8.51;79.86
75455;BME280;64035;48.358;2.122;2022-11-14T01:36:40;100599.94;;;8.49;79.55
75455;BME280;64035;48.358;2.122;2022-11-14T01:37:41;100604.84;;;8.46;80.09
75455;BME280;64035;48.358;2.122;2022-11-14T01:38:41;100603.28;;;8.48;79.77
75455;BME280;64035;48.358;2.122;2022-11-14T01:39:41;100587.69;;;8.43;80.51
75455;BME280;64035;48.358;2.122;2022-11-14T01:40:45;100601.72;;;8.50;79.73
75455;BME280;64035;48.358;2.122;2022-11-14T01:41:48;100598.09;;;8.46;79.36
75455;BME280;64035;48.358;2.122;2022-11-14T01:43:27;100611.09;;;8.51;79.23
75455;BME280;64035;48.358;2.122;2022-11-14T01:44:42;100596.94;;;8.41;79.61
75455;BME280;64035;48.358;2.122;2022-11-14T01:46:56;100592.53;;;8.39;80.03
75455;BME280;64035;48.358;2.122;2022-11-14T01:47:57;100579.69;;;8.37;79.02
75455;BME280;64035;48.358;2.122;2022-11-14T01:49:33;100573.63;;;8.35;79.56
75455;BME280;64035;48.358;2.122;2022-11-14T01:50:35;100578.13;;;8.39;79.70
75455;BME280;64035;48.358;2.122;2022-11-14T01:51:42;100576.44;;;8.40;79.31
75455;BME280;64035;48.358;2.122;2022-11-14T01:52:44;100583.41;;;8.42;79.27
75455;BME280;64035;48.358;2.122;2022-11-14T01:53:47;100574.50;;;8.36;79.03
75455;BME280;64035;48.358;2.122;2022-11-14T01:54:54;100567.56;;;8.33;79.16
75455;BME280;64035;48.358;2.122;2022-11-14T01:56:02;100576.25;;;8.37;79.17
75455;BME280;64035;48.358;2.122;2022-11-14T01:57:04;100578.66;;;8.34;79.87
75455;BME280;64035;48.358;2.122;2022-11-14T01:58:08;100566.69;;;8.33;79.54
75455;BME280;64035;48.358;2.122;2022-11-14T01:59:25;100563.25;;;8.32;79.24
75455;BME280;64035;48.358;2.122;2022-11-14T02:00:27;100557.25;;;8.32;79.79
75455;BME280;64035;48.358;2.122;2022-11-14T02:01:33;100560.59;;;8.31;79.70
75455;BME280;64035;48.358;2.122;2022-11-14T02:02:35;100566.84;;;8.36;79.68
75455;BME280;64035;48.358;2.122;2022-11-14T02:03:38;100567.56;;;8.33;79.60
75455;BME280;64035;48.358;2.122;2022-11-14T02:04:44;100552.03;;;8.30;79.48
75455;BME280;64035;48.358;2.122;2022-11-14T02:05:47;100564.69;;;8.29;79.86
75455;BME280;64035;48.358;2.122;2022-11-14T02:06:50;100561.09;;;8.25;79.66
75455;BME280;64035;48.358;2.122;2022-11-14T02:07:53;100557.84;;;8.28;80.24
75455;BME280;64035;48.358;2.122;2022-11-14T02:08:55;100554.31;;;8.26;80.29
75455;BME280;64035;48.358;2.122;2022-11-14T02:09:58;100558.03;;;8.31;79.99
75455;BME280;64035;48.358;2.122;2022-11-14T02:11:01;100566.56;;;8.31;79.68
75455;BME280;64035;48.358;2.122;2022-11-14T02:12:06;100551.88;;;8.27;79.03
75455;BME280;64035;48.358;2.122;2022-11-14T02:13:10;100557.13;;;8.30;79.43
75455;BME280;64035;48.358;2.122;2022-11-14T02:14:11;100553.63;;;8.28;79.07
75455;BME280;64035;48.358;2.122;2022-11-14T02:15:13;100549.38;;;8.29;79.68
75455;BME280;64035;48.358;2.122;2022-11-14T02:16:14;100545.09;;;8.28;80.07
75455;BME280;64035;48.358;2.122;2022-11-14T02:17:16;100560.41;;;8.28;79.38
75455;BME280;64035;48.358;2.122;2022-11-14T02:18:16;100547.44;;;8.24;80.28
75455;BME280;64035;48.358;2.122;2022-11-14T02:19:17;100559.50;;;8.27;79.82
75455;BME280;64035;48.358;2.122;2022-11-14T02:20:26;100551.16;;;8.30;79.88
75455;BME280;64035;48.358;2.122;2022-11-14T02:21:27;100546.84;;;8.29;79.98
75455;BME280;64035;48.358;2.122;2022-11-14T02:22:28;100543.25;;;8.25;79.69
75455;BME280;64035;48.358;2.122;2022-11-14T02:23:30;100535.34;;;8.20;80.61
75455;BME280;64035;48.358;2.122;2022-11-14T02:24:31;100529.34;;;8.20;80.06
75455;BME280;64035;48.358;2.122;2022-11-14T02:25:31;100529.34;;;8.20;80.31
75455;BME280;64035;48.358;2.122;2022-11-14T02:26:35;100535.59;;;8.25;80.13
75455;BME280;64035;48.358;2.122;2022-11-14T02:27:41;100526.88;;;8.21;79.62
75455;BME280;64035;48.358;2.122;2022-11-14T02:28:44;100529.59;;;8.24;79.43
75455;BME280;64035;48.358;2.122;2022-11-14T02:29:45;100528.03;;;8.27;79.31
75455;BME280;64035;48.358;2.122;2022-11-14T02:30:46;100529.81;;;8.28;79.82
75455;BME280;64035;48.358;2.122;2022-11-14T02:31:49;100519.16;;;8.20;79.75
75455;BME280;64035;48.358;2.122;2022-11-14T02:32:49;100528.81;;;8.26;79.52
75455;BME280;64035;48.358;2.122;2022-11-14T02:33:49;100527.06;;;8.24;79.25
75455;BME280;64035;48.358;2.122;2022-11-14T02:35:08;100526.28;;;8.26;79.12
75455;BME280;64035;48.358;2.122;2022-11-14T02:36:11;100517.66;;;8.23;79.37
75455;BME280;64035;48.358;2.122;2022-11-14T02:37:15;100513.31;;;8.22;79.73
75455;BME280;64035;48.358;2.122;2022-11-14T02:38:15;100527.16;;;8.26;79.64
75455;BME280;64035;48.358;2.122;2022-11-14T02:39:16;100520.03;;;8.20;79.36
75455;BME280;64035;48.358;2.122;2022-11-14T02:40:16;100499.63;;;8.20;79.37
75455;BME280;64035;48.358;2.122;2022-11-14T02:41:20;100508.94;;;8.20;79.73
75455;BME280;64035;48.358;2.122;2022-11-14T02:42:20;100516.84;;;8.24;79.63
75455;BME280;64035;48.358;2.122;2022-11-14T02:43:21;100516.06;;;8.26;79.60
75455;BME280;64035;48.358;2.122;2022-11-14T02:44:22;100511.41;;;8.18;79.71
75455;BME280;64035;48.358;2.122;2022-11-14T02:45:25;100515.28;;;8.27;79.64
75455;BME280;64035;48.358;2.122;2022-11-14T02:46:32;100498.66;;;8.18;79.23
75455;BME280;64035;48.358;2.122;2022-11-14T02:47:33;100499.63;;;8.20;79.43
75455;BME280;64035;48.358;2.122;2022-11-14T02:48:33;100501.56;;;8.24;80.02
75455;BME280;64035;48.358;2.122;2022-11-14T02:49:34;100493.47;;;8.17;79.56
75455;BME280;64035;48.358;2.122;2022-11-14T02:50:48;100495.22;;;8.18;79.76
75455;BME280;64035;48.358;2.122;2022-11-14T02:51:49;100487.56;;;8.18;79.99
75455;BME280;64035;48.358;2.122;2022-11-14T02:52:49;100496.09;;;8.18;79.52
75455;BME280;64035;48.358;2.122;2022-11-14T02:53:49;100493.66;;;8.20;79.76
75455;BME280;64035;48.358;2.122;2022-11-14T02:54:53;100496.25;;;8.21;79.38
75455;BME280;64035;48.358;2.122;2022-11-14T02:55:53;100502.34;;;8.23;79.14
75455;BME280;64035;48.358;2.122;2022-11-14T02:56:59;100495.41;;;8.21;80.06
75455;BME280;64035;48.358;2.122;2022-11-14T02:58:01;100495.31;;;8.19;80.44
75455;BME280;64035;48.358;2.122;2022-11-14T02:59:05;100501.47;;;8.23;79.05
75455;BME280;64035;48.358;2.122;2022-11-14T03:00:06;100493.72;;;8.21;79.06
75455;BME280;64035;48.358;2.122;2022-11-14T03:01:09;100492.00;;;8.20;79.23
75455;BME280;64035;48.358;2.122;2022-11-14T03:02:09;100500.53;;;8.21;78.95
75455;BME280;64035;48.358;2.122;2022-11-14T03:03:10;100499.34;;;8.16;80.16
75455;BME280;64035;48.358;2.122;2022-11-14T03:04:16;100490.91;;;8.17;79.16
75455;BME280;64035;48.358;2.122;2022-11-14T03:05:19;100504.91;;;8.23;80.37
75455;BME280;64035;48.358;2.122;2022-11-14T03:06:22;100505.44;;;8.18;79.93
75455;BME280;64035;48.358;2.122;2022-11-14T03:07:26;100497.00;;;8.19;80.16
75455;BME280;64035;48.358;2.122;2022-11-14T03:08:26;100497.00;;;8.19;79.26
75455;BME280;64035;48.358;2.122;2022-11-14T03:09:27;100490.91;;;8.17;79.05
75455;BME280;64035;48.358;2.122;2022-11-14T03:10:30;100492.00;;;8.20;79.02
75455;BME280;64035;48.358;2.122;2022-11-14T03:11:30;100490.31;;;8.21;80.92
75455;BME280;64035;48.358;2.122;2022-11-14T03:12:31;100483.25;;;8.17;79.28
75455;BME280;64035;48.358;2.122;2022-11-14T03:13:31;100479.03;;;8.17;79.13
75455;BME280;64035;48.358;2.122;2022-11-14T03:14:32;100478.16;;;8.17;79.20
75455;BME280;64035;48.358;2.122;2022-11-14T03:15:37;100485.91;;;8.18;78.75
75455;BME280;64035;48.358;2.122;2022-11-14T03:16:38;100480.81;;;8.18;78.86
75455;BME280;64035;48.358;2.122;2022-11-14T03:17:41;100466.41;;;8.19;79.86
75455;BME280;64035;48.358;2.122;2022-11-14T03:18:41;100474.19;;;8.22;78.73
75455;BME280;64035;48.358;2.122;2022-11-14T03:19:42;100468.06;;;8.18;79.77
75455;BME280;64035;48.358;2.122;2022-11-14T03:20:44;100462.00;;;8.16;79.60
75455;BME280;64035;48.358;2.122;2022-11-14T03:21:45;100467.09;;;8.16;79.15
75455;BME280;64035;48.358;2.122;2022-11-14T03:22:45;100463.06;;;8.20;79.35
75455;BME280;64035;48.358;2.122;2022-11-14T03:23:46;100463.06;;;8.20;79.26
75455;BME280;64035;48.358;2.122;2022-11-14T03:24:47;100461.19;;;8.17;79.07
75455;BME280;64035;48.358;2.122;2022-11-14T03:25:47;100452.66;;;8.17;79.26
75455;BME280;64035;48.358;2.122;2022-11-14T03:26:50;100468.22;;;8.21;79.56
75455;BME280;64035;48.358;2.122;2022-11-14T03:27:50;100457.97;;;8.20;80.06
75455;BME280;64035;48.358;2.122;2022-11-14T03:28:53;100461.19;;;8.17;79.33
75455;BME280;64035;48.358;2.122;2022-11-14T03:29:54;100456.78;;;8.15;79.07
75455;BME280;64035;48.358;2.122;2022-11-14T03:30:55;100460.41;;;8.18;79.17
75455;BME280;64035;48.358;2.122;2022-11-14T03:31:59;100460.41;;;8.18;79.51
75455;BME280;64035;48.358;2.122;2022-11-14T03:33:00;100455.06;;;8.14;79.49
75455;BME280;64035;48.358;2.122;2022-11-14T03:34:03;100450.03;;;8.15;79.41
75455;BME280;64035;48.358;2.122;2022-11-14T03:35:04;100450.75;;;8.13;79.38
75455;BME280;64035;48.358;2.122;2022-11-14T03:36:06;100457.97;;;8.20;79.24
75455;BME280;64035;48.358;2.122;2022-11-14T03:37:07;100452.75;;;8.18;79.14
75455;BME280;64035;48.358;2.122;2022-11-14T03:38:10;100451.88;;;8.18;79.50
75455;BME280;64035;48.358;2.122;2022-11-14T03:39:11;100454.34;;;8.16;78.82
75455;BME280;64035;48.358;2.122;2022-11-14T03:40:28;100439.75;;;8.14;78.87
75455;BME280;64035;48.358;2.122;2022-11-14T03:41:31;100443.16;;;8.14;78.79
75455;BME280;64035;48.358;2.122;2022-11-14T03:42:34;100453.47;;;8.16;79.95
75455;BME280;64035;48.358;2.122;2022-11-14T03:43:35;100442.31;;;8.14;79.21
75455;BME280;64035;48.358;2.122;2022-11-14T03:44:36;100437.91;;;8.11;79.21
75455;BME280;64035;48.358;2.122;2022-11-14T03:45:36;100437.81;;;8.10;79.25
75455;BME280;64035;48.358;2.122;2022-11-14T03:46:37;100441.34;;;8.12;79.71
75455;BME280;64035;48.358;2.122;2022-11-14T03:47:37;100440.47;;;8.11;79.88
75455;BME280;64035;48.358;2.122;2022-11-14T03:48:38;100434.47;;;8.11;80.00
75455;BME280;64035;48.358;2.122;2022-11-14T03:49:38;100433.69;;;8.12;79.61
75455;BME280;64035;48.358;2.122;2022-11-14T03:50:46;100435.16;;;8.08;80.48
75455;BME280;64035;48.358;2.122;2022-11-14T03:51:49;100449.25;;;8.16;79.72
75455;BME280;64035;48.358;2.122;2022-11-14T03:52:54;100438.59;;;8.09;80.25
75455;BME280;64035;48.358;2.122;2022-11-14T03:53:54;100451.97;;;8.19;79.59
75455;BME280;64035;48.358;2.122;2022-11-14T03:54:55;100450.31;;;8.20;79.58
75455;BME280;64035;48.358;2.122;2022-11-14T03:55:55;100444.88;;;8.14;79.15
75455;BME280;64035;48.358;2.122;2022-11-14T03:56:56;100450.13;;;8.17;79.33
75455;BME280;64035;48.358;2.122;2022-11-14T03:57:56;100448.25;;;8.14;79.39
75455;BME280;64035;48.358;2.122;2022-11-14T03:58:57;100447.56;;;8.17;79.28
75455;BME280;64035;48.358;2.122;2022-11-14T03:59:57;100443.97;;;8.13;79.24
75455;BME280;64035;48.358;2.122;2022-11-14T04:00:58;100451.88;;;8.18;79.50
75455;BME280;64035;48.358;2.122;2022-11-14T04:01:58;100443.09;;;8.13;79.16
75455;BME280;64035;48.358;2.122;2022-11-14T04:02:58;100437.91;;;8.11;79.53
75455;BME280;64035;48.358;2.122;2022-11-14T04:03:59;100434.56;;;8.12;79.57
75455;BME280;64035;48.358;2.122;2022-11-14T04:04:59;100443.09;;;8.13;79.51
75455;BME280;64035;48.358;2.122;2022-11-14T04:06:00;100439.47;;;8.09;79.88
75455;BME280;64035;48.358;2.122;2022-11-14T04:07:03;100430.06;;;8.08;79.62
75455;BME280;64035;48.358;2.122;2022-11-14T04:08:05;100441.59;;;8.16;79.43
75455;BME280;64035;48.358;2.122;2022-11-14T04:09:05;100427.72;;;8.11;79.84
75455;BME280;64035;48.358;2.122;2022-11-14T04:10:10;100430.25;;;8.11;79.22
75455;BME280;64035;48.358;2.122;2022-11-14T04:11:13;100431.03;;;8.10;80.07
75455;BME280;64035;48.358;2.122;2022-11-14T04:12:13;100430.25;;;8.11;79.53
75455;BME280;64035;48.358;2.122;2022-11-14T04:13:17;100422.41;;;8.08;79.23
75455;BME280;64035;48.358;2.122;2022-11-14T04:14:17;100436.34;;;8.13;79.63
75455;BME280;64035;48.358;2.122;2022-11-14T04:15:18;100440.63;;;8.14;80.19
75455;BME280;64035;48.358;2.122;2022-11-14T04:16:25;100431.84;;;8.09;80.25
75455;BME280;64035;48.358;2.122;2022-11-14T04:17:25;100434.72;;;8.15;80.52
75455;BME280;64035;48.358;2.122;2022-11-14T04:18:26;100430.25;;;8.11;79.99
75455;BME280;64035;48.358;2.122;2022-11-14T04:19:26;100433.84;;;8.15;80.14
75455;BME280;64035;48.358;2.122;2022-11-14T04:20:27;100434.72;;;8.15;80.23
75455;BME280;64035;48.358;2.122;2022-11-14T04:21:30;100427.63;;;8.10;79.77
75455;BME280;64035;48.358;2.122;2022-11-14T04:22:31;100436.34;;;8.13;79.71
75455;BME280;64035;48.358;2.122;2022-11-14T04:23:32;100437.22;;;8.14;79.93
75455;BME280;64035;48.358;2.122;2022-11-14T04:24:32;100430.25;;;8.11;79.85
75455;BME280;64035;48.358;2.122;2022-11-14T04:25:36;100421.72;;;8.11;80.16
75455;BME280;64035;48.358;2.122;2022-11-14T04:26:42;100424.38;;;8.12;79.81
75455;BME280;64035;48.358;2.122;2022-11-14T04:27:42;100431.84;;;8.09;80.08
75455;BME280;64035;48.358;2.122;2022-11-14T04:28:46;100432.63;;;8.08;80.18
75455;BME280;64035;48.358;2.122;2022-11-14T04:29:46;100432.63;;;8.08;80.03
75455;BME280;64035;48.358;2.122;2022-11-14T04:30:46;100426.72;;;8.09;79.74
75455;BME280;64035;48.358;2.122;2022-11-14T04:31:47;100429.38;;;8.11;80.07
75455;BME280;64035;48.358;2.122;2022-11-14T04:32:47;100433.84;;;8.15;79.69
75455;BME280;64035;48.358;2.122;2022-11-14T04:33:48;100433.94;;;8.16;79.71
75455;BME280;64035;48.358;2.122;2022-11-14T04:34:49;100432.97;;;8.14;79.42
75455;BME280;64035;48.358;2.122;2022-11-14T04:35:49;100433.16;;;8.17;79.60
75455;BME280;64035;48.358;2.122;2022-11-14T04:36:52;100425.25;;;8.13;79.86
75455;BME280;64035;48.358;2.122;2022-11-14T04:37:53;100420.06;;;8.11;79.53
75455;BME280;64035;48.358;2.122;2022-11-14T04:39:02;100426.13;;;8.13;80.07
75455;BME280;64035;48.358;2.122;2022-11-14T04:40:06;100421.72;;;8.11;80.32
75455;BME280;64035;48.358;2.122;2022-11-14T04:41:09;100429.47;;;8.12;79.74
75455;BME280;64035;48.358;2.122;2022-11-14T04:42:10;100423.50;;;8.12;80.01
75455;BME280;64035;48.358;2.122;2022-11-14T04:43:10;100422.72;;;8.13;80.48
75455;BME280;64035;48.358;2.122;2022-11-14T04:44:10;100424.63;;;8.17;80.31
75455;BME280;64035;48.358;2.122;2022-11-14T04:45:11;100427.19;;;8.17;80.08
75455;BME280;64035;48.358;2.122;2022-11-14T04:46:11;100419.38;;;8.14;80.05
75455;BME280;64035;48.358;2.122;2022-11-14T04:47:12;100426.38;;;8.18;79.93
75455;BME280;64035;48.358;2.122;2022-11-14T04:48:12;100426.28;;;8.16;80.27
75455;BME280;64035;48.358;2.122;2022-11-14T04:49:17;100416.88;;;8.15;80.43
75455;BME280;64035;48.358;2.122;2022-11-14T04:50:17;100413.28;;;8.12;79.95
75455;BME280;64035;48.358;2.122;2022-11-14T04:51:20;100420.16;;;8.13;79.74
75455;BME280;64035;48.358;2.122;2022-11-14T04:52:23;100413.38;;;8.13;80.00
75455;BME280;64035;48.358;2.122;2022-11-14T04:53:26;100414.34;;;8.15;79.94
75455;BME280;64035;48.358;2.122;2022-11-14T04:54:26;100410.91;;;8.15;79.78
75455;BME280;64035;48.358;2.122;2022-11-14T04:55:27;100418.75;;;8.18;79.91
75455;BME280;64035;48.358;2.122;2022-11-14T04:56:27;100421.19;;;8.16;80.11
75455;BME280;64035;48.358;2.122;2022-11-14T04:57:30;100413.63;;;8.18;80.42
75455;BME280;64035;48.358;2.122;2022-11-14T04:58:30;100419.63;;;8.18;80.33
75455;BME280;64035;48.358;2.122;2022-11-14T04:59:31;100406.63;;;8.14;79.83
75455;BME280;64035;48.358;2.122;2022-11-14T05:00:42;100417.59;;;8.13;80.35
75455;BME280;64035;48.358;2.122;2022-11-14T05:01:44;100408.44;;;8.16;79.81
75455;BME280;64035;48.358;2.122;2022-11-14T05:02:44;100408.34;;;8.15;79.75
75455;BME280;64035;48.358;2.122;2022-11-14T05:03:48;100406.69;;;8.15;80.14
75455;BME280;64035;48.358;2.122;2022-11-14T05:04:48;100405.56;;;8.10;80.79
75455;BME280;64035;48.358;2.122;2022-11-14T05:05:49;100416.00;;;8.15;80.79
75455;BME280;64035;48.358;2.122;2022-11-14T05:06:50;100409.97;;;8.13;80.60
75455;BME280;64035;48.358;2.122;2022-11-14T05:07:50;100404.94;;;8.14;80.75
75455;BME280;64035;48.358;2.122;2022-11-14T05:08:51;100412.75;;;8.17;80.67
75455;BME280;64035;48.358;2.122;2022-11-14T05:09:51;100403.00;;;8.10;80.12
75455;BME280;64035;48.358;2.122;2022-11-14T05:10:52;100408.44;;;8.16;80.29
75455;BME280;64035;48.358;2.122;2022-11-14T05:11:52;100399.66;;;8.11;80.57
75455;BME280;64035;48.358;2.122;2022-11-14T05:12:53;100402.56;;;8.17;80.03
75455;BME280;64035;48.358;2.122;2022-11-14T05:13:53;100394.72;;;8.14;80.21
75455;BME280;64035;48.358;2.122;2022-11-14T05:14:54;100399.91;;;8.16;80.20
75455;BME280;64035;48.358;2.122;2022-11-14T05:15:58;100398.09;;;8.13;80.21
75455;BME280;64035;48.358;2.122;2022-11-14T05:16:59;100393.78;;;8.12;80.19
75455;BME280;64035;48.358;2.122;2022-11-14T05:17:59;100403.34;;;8.16;80.31
75455;BME280;64035;48.358;2.122;2022-11-14T05:19:02;100401.44;;;8.12;80.33
75455;BME280;64035;48.358;2.122;2022-11-14T05:20:03;100394.47;;;8.10;80.47
75455;BME280;64035;48.358;2.122;2022-11-14T05:21:04;100402.38;;;8.14;80.63
75455;BME280;64035;48.358;2.122;2022-11-14T05:22:04;100399.31;;;8.20;80.00
75455;BME280;64035;48.358;2.122;2022-11-14T05:23:05;100397.56;;;8.19;80.14
75455;BME280;64035;48.358;2.122;2022-11-14T05:24:05;100400.81;;;8.16;80.32
75455;BME280;64035;48.358;2.122;2022-11-14T05:25:09;100401.88;;;8.20;80.32
75455;BME280;64035;48.358;2.122;2022-11-14T05:26:13;100394.66;;;8.13;80.34
75455;BME280;64035;48.358;2.122;2022-11-14T05:27:18;100394.72;;;8.14;80.83
75455;BME280;64035;48.358;2.122;2022-11-14T05:28:19;100388.78;;;8.14;80.77
75455;BME280;64035;48.358;2.122;2022-11-14T05:29:19;100398.34;;;8.18;80.84
75455;BME280;64035;48.358;2.122;2022-11-14T05:30:20;100393.25;;;8.18;81.06
75455;BME280;64035;48.358;2.122;2022-11-14T05:31:23;100386.28;;;8.15;80.74
75455;BME280;64035;48.358;2.122;2022-11-14T05:32:24;100376.72;;;8.11;80.21
75455;BME280;64035;48.358;2.122;2022-11-14T05:33:30;100391.47;;;8.17;80.09